Time;durP1;ratioP1;P1;durP2;ratioP2;P2;SDS_P1;SDS_P2;PMS_P1;PMS_P2;Temp;Humidity;BMP_temperature;BMP_pressure;BME280_temperature;BME280_humidity;BME280_pressure;Samples;Min_cycle;Max_cycle;Signal;HPM_P1;HPM_P2
2022/07/21 00:00:37;;;;;;;12.30;10.95;;;;;;;27.69;46.40;101124.47;5070880;28;20130;-75
2022/07/21 00:03:04;;;;;;;11.75;10.55;;;;;;;27.71;46.78;101121.56;5072724;28;20148;-75
2022/07/21 00:05:32;;;;;;;11.98;10.50;;;;;;;27.71;46.78;101129.72;5072363;28;20045;-75
2022/07/21 00:07:59;;;;;;;12.48;11.20;;;;;;;27.71;46.83;101122.44;5072737;28;20530;-75
2022/07/21 00:10:27;;;;;;;13.18;11.13;;;;;;;27.72;46.46;101120.56;5087825;28;20483;-75
2022/07/21 00:12:56;;;;;;;11.75;10.57;;;;;;;27.72;46.73;101117.84;5092781;28;20044;-74
2022/07/21 00:15:26;;;;;;;11.88;10.75;;;;;;;27.72;46.68;101112.41;5092778;28;20425;-74
2022/07/21 00:17:54;;;;;;;11.82;10.68;;;;;;;27.73;46.73;101114.97;5094458;28;20051;-76
2022/07/21 00:20:21;;;;;;;11.48;10.38;;;;;;;27.73;46.51;101108.66;5096859;28;20408;-77
2022/07/21 00:22:49;;;;;;;12.00;10.77;;;;;;;27.74;46.72;101115.81;5096920;28;20047;-74
2022/07/21 00:25:17;;;;;;;11.13;9.85;;;;;;;27.75;46.81;101112.06;5096534;28;20048;-74
2022/07/21 00:27:44;;;;;;;12.50;11.20;;;;;;;27.75;46.77;101114.78;5096399;28;20044;-74
2022/07/21 00:30:12;;;;;;;10.88;9.85;;;;;;;27.77;46.74;101118.19;5095353;28;20570;-74
2022/07/21 00:32:40;;;;;;;12.25;10.95;;;;;;;27.76;46.99;101111.06;5096458;28;20040;-74
2022/07/21 00:35:09;;;;;;;11.73;10.60;;;;;;;27.77;46.61;101104.56;5096454;28;20059;-74
2022/07/21 00:37:37;;;;;;;12.57;10.68;;;;;;;27.78;46.83;101111.69;5097005;28;20377;-75
2022/07/21 00:40:06;;;;;;;12.52;11.23;;;;;;;27.78;46.58;101111.69;5095383;28;20056;-75
2022/07/21 00:42:34;;;;;;;11.48;10.30;;;;;;;27.79;46.71;101116.09;5096233;28;20055;-74
2022/07/21 00:45:06;;;;;;;12.48;9.82;;;;;;;27.79;46.74;101113.38;5096484;28;20040;-74
2022/07/21 00:47:33;;;;;;;12.32;11.02;;;;;;;27.79;46.80;101108.81;5096345;28;20044;-75
2022/07/21 00:50:04;;;;;;;11.23;10.13;;;;;;;27.79;46.55;101103.38;5095939;28;20059;-75
2022/07/21 00:52:32;;;;;;;11.75;10.55;;;;;;;27.81;46.50;101105.91;5094778;28;20074;-75
2022/07/21 00:55:01;;;;;;;12.30;11.07;;;;;;;27.81;46.83;101097.75;5095981;28;20047;-75
2022/07/21 00:57:29;;;;;;;12.20;10.93;;;;;;;27.81;46.54;101098.59;5094179;28;20051;-74
2022/07/21 00:59:56;;;;;;;12.20;11.07;;;;;;;27.82;47.07;101091.28;5072831;28;20480;-75
2022/07/21 01:02:26;;;;;;;13.32;10.65;;;;;;;27.82;46.91;101094.00;5074762;28;20063;-74
2022/07/21 01:04:54;;;;;;;11.15;10.00;;;;;;;27.82;46.92;101097.53;5076000;28;20049;-74
2022/07/21 01:07:21;;;;;;;11.77;10.68;;;;;;;27.82;46.61;101091.28;5075732;28;20051;-74
2022/07/21 01:09:49;;;;;;;12.35;10.90;;;;;;;27.83;46.73;101092.94;5075835;28;20049;-75
2022/07/21 01:12:17;;;;;;;11.35;10.18;;;;;;;27.83;47.16;101088.38;5093444;28;20475;-75
2022/07/21 01:14:45;;;;;;;11.15;10.05;;;;;;;27.84;46.81;101094.66;5095601;28;20062;-75
2022/07/21 01:17:12;;;;;;;11.90;10.65;;;;;;;27.84;47.00;101108.28;5095855;28;20051;-75
2022/07/21 01:19:40;;;;;;;11.43;10.30;;;;;;;27.85;47.23;101099.06;5094136;28;20409;-75
2022/07/21 01:22:08;;;;;;;11.27;10.27;;;;;;;27.86;47.31;101103.47;5095459;28;20055;-75
2022/07/21 01:24:35;;;;;;;11.63;10.52;;;;;;;27.86;47.04;101100.75;5096133;28;20047;-75
2022/07/21 01:27:02;;;;;;;11.45;10.35;;;;;;;27.86;47.15;101100.75;5095748;28;20052;-75
2022/07/21 01:29:30;;;;;;;11.65;10.55;;;;;;;27.86;47.09;101108.91;5094586;28;20484;-75
2022/07/21 01:31:57;;;;;;;12.73;10.02;;;;;;;27.85;47.38;101105.34;5094542;28;20044;-75
2022/07/21 01:34:25;;;;;;;11.07;9.98;;;;;;;27.87;46.92;101104.31;5093421;28;20047;-75
2022/07/21 01:36:52;;;;;;;12.00;10.73;;;;;;;27.85;47.60;101102.63;5094504;28;20047;-75
2022/07/21 01:42:06;;;;;;;12.05;10.77;;;;;;;27.88;47.22;101097.88;5095206;28;20040;-75
2022/07/21 01:44:33;;;;;;;11.65;10.40;;;;;;;27.88;47.11;101106.88;5094929;28;20522;-74
2022/07/21 01:47:01;;;;;;;11.02;9.98;;;;;;;27.88;47.32;101098.72;5093987;28;20051;-74
2022/07/21 01:49:28;;;;;;;11.25;10.18;;;;;;;27.88;47.48;101096.00;5094888;28;20044;-75
2022/07/21 01:51:56;;;;;;;11.80;10.60;;;;;;;27.88;46.97;101093.28;5095184;28;20091;-75
2022/07/21 01:54:23;;;;;;;10.93;9.93;;;;;;;27.88;47.28;101096.00;5095005;28;20048;-75
2022/07/21 01:56:51;;;;;;;11.93;10.55;;;;;;;27.90;47.58;101102.09;5095433;28;20055;-75
2022/07/21 01:59:19;;;;;;;11.32;10.32;;;;;;;27.89;47.24;101102.28;5085193;28;20040;-75
2022/07/21 02:01:47;;;;;;;11.70;10.55;;;;;;;27.90;47.62;101103.97;5072890;28;20051;-75
2022/07/21 02:04:14;;;;;;;11.80;10.65;;;;;;;27.90;47.40;101106.69;5074553;28;20045;-75
2022/07/21 02:06:42;;;;;;;12.60;11.40;;;;;;;27.91;47.80;101106.50;5074301;28;20376;-75
2022/07/21 02:09:10;;;;;;;11.70;10.57;;;;;;;27.91;47.47;101100.22;5074523;28;20519;-75
2022/07/21 02:11:38;;;;;;;11.75;10.55;;;;;;;27.91;47.28;101109.22;5074370;28;20408;-75
2022/07/21 02:14:05;;;;;;;11.90;10.70;;;;;;;27.91;47.37;101103.78;5074179;28;20088;-75
2022/07/21 02:16:33;;;;;;;15.82;10.98;;;;;;;27.91;47.42;101111.94;5072754;28;20056;-75
2022/07/21 02:19:01;;;;;;;11.82;10.60;;;;;;;27.92;47.26;101102.75;5074748;28;20052;-75
2022/07/21 02:21:28;;;;;;;12.23;10.40;;;;;;;27.91;47.60;101101.03;5074223;28;20047;-75
2022/07/21 02:23:56;;;;;;;11.48;10.00;;;;;;;27.93;47.59;101100.88;5074314;28;20044;-75
2022/07/21 02:26:23;;;;;;;11.82;10.73;;;;;;;27.92;47.38;101091.88;5074240;28;20059;-75
2022/07/21 02:28:51;;;;;;;12.68;11.43;;;;;;;27.93;47.54;101100.88;5085566;28;20063;-75
2022/07/21 02:31:18;;;;;;;12.07;10.95;;;;;;;27.92;47.55;101091.03;5094155;28;20055;-75
2022/07/21 02:33:46;;;;;;;11.13;10.13;;;;;;;27.93;47.52;101100.88;5094487;28;20039;-75
2022/07/21 02:36:13;;;;;;;11.07;9.93;;;;;;;27.93;47.55;101103.59;5094065;28;20044;-75
2022/07/21 02:38:41;;;;;;;11.23;10.15;;;;;;;27.93;47.23;101093.56;5094634;28;20431;-75
2022/07/21 02:41:08;;;;;;;11.10;10.20;;;;;;;27.92;47.32;101097.31;5093893;28;20056;-75
2022/07/21 02:43:36;;;;;;;11.55;9.98;;;;;;;27.94;47.11;101091.69;5093936;28;20475;-75
2022/07/21 02:46:03;;;;;;;11.20;10.10;;;;;;;27.93;47.34;101088.13;5092952;28;20063;-75
2022/07/21 02:48:30;;;;;;;11.23;9.43;;;;;;;27.93;47.29;101088.13;5093701;28;20047;-75
2022/07/21 02:50:58;;;;;;;11.23;10.13;;;;;;;27.94;47.45;101089.81;5093702;28;20048;-75
2022/07/21 02:53:26;;;;;;;11.18;10.07;;;;;;;27.94;47.49;101089.81;5094144;28;20044;-75
2022/07/21 02:55:54;;;;;;;11.57;10.48;;;;;;;27.95;47.03;101094.22;5093655;28;20052;-75
2022/07/21 02:58:27;;;;;;;10.05;9.15;;;;;;;27.95;47.48;101101.53;5092071;28;20051;-75
2022/07/21 03:01:03;;;;;;;10.32;9.38;;;;;;;27.95;47.41;101105.09;5079344;28;20037;-75
2022/07/21 03:03:33;;;;;;;10.50;9.40;;;;;;;27.96;47.20;101103.25;5092025;28;20051;-75
2022/07/21 03:06:01;;;;;;;10.43;9.43;;;;;;;27.96;47.23;101097.81;5093799;28;20059;-75
2022/07/21 03:08:29;;;;;;;11.40;9.63;;;;;;;27.95;47.34;101096.94;5094223;28;20036;-75
2022/07/21 03:10:56;;;;;;;11.48;10.02;;;;;;;27.95;47.42;101091.50;5073712;28;20423;-75
2022/07/21 03:13:24;;;;;;;10.70;9.60;;;;;;;27.97;47.14;101099.50;5093057;28;20055;-76
2022/07/21 03:15:51;;;;;;;10.52;9.43;;;;;;;27.96;47.59;101089.66;5093998;28;20050;-75
2022/07/21 03:18:19;;;;;;;10.18;9.23;;;;;;;27.96;47.48;101103.25;5093321;28;20037;-76
2022/07/21 03:20:46;;;;;;;10.93;9.75;;;;;;;27.96;47.33;101101.38;5093254;28;20391;-76
2022/07/21 03:23:14;;;;;;;10.65;9.55;;;;;;;27.97;47.16;101107.66;5093817;28;20044;-75
2022/07/21 03:25:41;;;;;;;9.88;8.95;;;;;;;27.97;47.57;101100.34;5093337;28;20412;-80
2022/07/21 03:28:09;;;;;;;10.82;9.77;;;;;;;27.95;47.27;101096.09;5093316;28;20098;-75
2022/07/21 03:30:36;;;;;;;11.60;9.48;;;;;;;27.94;47.46;101094.41;5093502;28;20040;-76
2022/07/21 03:33:04;;;;;;;10.77;9.68;;;;;;;27.91;47.09;101101.03;5092939;28;20048;-76
2022/07/21 03:35:32;;;;;;;10.57;9.45;;;;;;;27.90;47.40;101093.91;5093353;28;20048;-76
2022/07/21 03:38:00;;;;;;;11.07;9.32;;;;;;;27.90;47.61;101093.91;5092903;28;20032;-75
2022/07/21 03:40:33;;;;;;;11.60;9.93;;;;;;;27.88;47.10;101101.44;5092714;28;20055;-76
2022/07/21 03:43:02;;;;;;;11.13;10.02;;;;;;;27.84;46.78;101095.50;5093590;28;20043;-75
2022/07/21 03:45:31;;;;;;;10.77;9.68;;;;;;;27.84;47.24;101102.81;5091640;28;20101;-75
2022/07/21 03:48:00;;;;;;;10.23;9.23;;;;;;;27.83;47.12;101096.53;5092944;28;20032;-75
2022/07/21 03:50:28;;;;;;;10.57;9.52;;;;;;;27.84;47.05;101100.94;5092098;28;20044;-75
2022/07/21 03:52:55;;;;;;;10.75;9.75;;;;;;;27.81;46.69;101106.75;5092289;28;20051;-76
2022/07/21 03:55:23;;;;;;;10.82;9.82;;;;;;;27.81;46.57;101111.34;5091003;28;20062;-76
2022/07/21 03:57:52;;;;;;;11.65;10.30;;;;;;;27.81;46.99;101119.50;5093269;28;20048;-76
2022/07/21 04:00:24;;;;;;;10.10;9.10;;;;;;;27.81;46.72;101111.34;5092483;28;20044;-76
2022/07/21 04:02:51;;;;;;;12.35;9.80;;;;;;;27.81;46.76;101097.75;5073515;28;20036;-76
2022/07/21 04:05:19;;;;;;;10.30;9.30;;;;;;;27.81;47.26;101095.88;5071174;28;20040;-76
2022/07/21 04:07:49;;;;;;;11.30;9.90;;;;;;;27.81;47.69;101089.59;5072571;28;20040;-75
2022/07/21 04:10:20;;;;;;;10.38;9.30;;;;;;;27.81;47.30;101097.75;5070814;28;20053;-75
2022/07/21 04:12:48;;;;;;;10.73;9.48;;;;;;;27.80;47.56;101093.34;5071164;28;20056;-75
2022/07/21 04:15:17;;;;;;;9.65;8.65;;;;;;;27.80;47.53;101098.78;5072630;28;20048;-75
2022/07/21 04:17:44;;;;;;;10.73;9.60;;;;;;;27.80;47.44;101112.38;5072826;28;20059;-75
2022/07/21 04:20:13;;;;;;;10.23;9.13;;;;;;;27.80;48.07;101109.66;5072696;28;20512;-75
2022/07/21 04:22:44;;;;;;;10.65;9.65;;;;;;;27.79;48.31;101106.09;5072529;28;20055;-75
2022/07/21 04:25:13;;;;;;;9.73;8.73;;;;;;;27.80;48.13;101110.50;5072877;28;20049;-75
2022/07/21 04:27:41;;;;;;;12.10;9.38;;;;;;;27.81;47.97;101109.47;5072257;28;20045;-75
2022/07/21 04:30:12;;;;;;;10.20;9.25;;;;;;;27.80;47.81;101113.22;5091091;28;20056;-75
2022/07/21 04:32:39;;;;;;;10.35;9.35;;;;;;;27.80;47.94;101110.50;5091145;28;20068;-76
2022/07/21 04:35:08;;;;;;;10.35;9.25;;;;;;;27.80;47.64;101123.25;5091434;28;20044;-76
2022/07/21 04:37:36;;;;;;;10.32;9.32;;;;;;;27.79;47.81;101111.53;5091070;28;20052;-76
2022/07/21 04:40:05;;;;;;;10.38;8.68;;;;;;;27.80;47.39;101113.22;5096514;28;20055;-76
2022/07/21 04:42:33;;;;;;;10.63;9.63;;;;;;;27.79;47.72;101110.66;5105703;28;20066;-76
2022/07/21 04:45:03;;;;;;;11.00;10.00;;;;;;;27.79;47.32;101118.81;5107820;28;20064;-76
2022/07/21 04:47:31;;;;;;;11.50;9.85;;;;;;;27.78;47.63;101117.97;5098575;28;20426;-75
2022/07/21 04:49:58;;;;;;;10.80;9.70;;;;;;;27.78;48.03;101128.03;5093737;28;20040;-75
2022/07/21 04:52:25;;;;;;;10.40;9.15;;;;;;;27.77;47.51;101131.78;5093217;28;20055;-75
2022/07/21 04:54:53;;;;;;;10.77;9.77;;;;;;;27.76;47.82;101122.78;5092841;28;20052;-76
2022/07/21 04:57:20;;;;;;;10.23;9.23;;;;;;;27.75;47.83;101126.53;5091055;28;20048;-75
2022/07/21 04:59:47;;;;;;;10.75;9.40;;;;;;;27.76;47.71;101128.22;5092217;28;20336;-76
2022/07/21 05:02:15;;;;;;;10.00;9.07;;;;;;;27.77;47.88;101127.19;5084406;28;20044;-76
2022/07/21 05:04:42;;;;;;;9.95;9.05;;;;;;;27.77;48.06;101124.47;5087256;28;20056;-75
2022/07/21 05:07:10;;;;;;;10.27;9.27;;;;;;;27.79;48.36;101124.28;5075858;28;20508;-76
2022/07/21 05:09:38;;;;;;;10.57;9.57;;;;;;;27.79;48.15;101129.72;5084332;28;20047;-76
2022/07/21 05:12:05;;;;;;;10.88;9.57;;;;;;;27.78;48.27;101128.88;5096005;28;20052;-76
2022/07/21 05:14:33;;;;;;;12.98;10.10;;;;;;;27.78;47.69;101138.91;5096105;28;20044;-77
2022/07/21 05:17:00;;;;;;;10.35;9.30;;;;;;;27.78;47.91;101136.19;5095611;28;20052;-76
2022/07/21 05:19:28;;;;;;;10.65;9.55;;;;;;;27.79;47.98;101133.31;5095945;28;20506;-76
2022/07/21 05:21:55;;;;;;;10.25;9.32;;;;;;;27.78;48.32;101122.59;5095519;28;20492;-76
2022/07/21 05:24:22;;;;;;;10.82;9.65;;;;;;;27.79;48.45;101127.00;5095766;28;20059;-76
2022/07/21 05:26:50;;;;;;;9.70;8.80;;;;;;;27.78;48.53;101128.88;5095420;28;20051;-76
2022/07/21 05:29:17;;;;;;;10.93;9.77;;;;;;;27.78;47.93;101138.91;5095513;28;20047;-77
2022/07/21 05:31:45;;;;;;;9.70;8.80;;;;;;;27.79;48.34;101141.47;5093926;28;20048;-76
2022/07/21 05:34:12;;;;;;;9.98;9.05;;;;;;;27.79;48.45;101135.16;5095184;28;20044;-76
2022/07/21 05:36:39;;;;;;;10.52;9.43;;;;;;;27.79;48.02;101133.31;5095176;28;20052;-77
2022/07/21 05:39:07;;;;;;;10.00;8.93;;;;;;;27.80;48.11;101139.59;5095293;28;20051;-77
2022/07/21 05:41:34;;;;;;;11.07;9.82;;;;;;;27.80;48.19;101142.31;5096158;28;20052;-76
2022/07/21 05:44:01;;;;;;;10.52;9.50;;;;;;;27.79;48.21;101138.75;5095217;28;20039;-77
2022/07/21 05:46:29;;;;;;;10.80;9.43;;;;;;;27.80;48.13;101140.44;5095353;28;20055;-77
2022/07/21 05:48:56;;;;;;;10.23;9.23;;;;;;;27.81;48.45;101138.56;5095026;28;20048;-77
2022/07/21 05:51:23;;;;;;;12.18;9.48;;;;;;;27.81;48.13;101149.44;5095016;28;20040;-77
2022/07/21 05:53:51;;;;;;;11.65;9.85;;;;;;;27.81;48.14;101154.88;5095682;28;20399;-77
2022/07/21 05:56:18;;;;;;;11.05;9.70;;;;;;;27.81;48.18;101152.16;5093585;28;20056;-77
2022/07/21 05:58:46;;;;;;;10.57;9.43;;;;;;;27.82;48.01;101156.56;5094929;28;20040;-76
2022/07/21 06:01:13;;;;;;;10.55;9.27;;;;;;;27.83;48.69;101155.53;5093972;28;20131;-77
2022/07/21 06:03:45;;;;;;;13.25;9.82;;;;;;;27.82;48.37;101151.97;5082368;28;20047;-77
2022/07/21 06:06:15;;;;;;;11.15;9.63;;;;;;;27.82;48.82;101145.69;5074623;28;20408;-76
2022/07/21 06:08:45;;;;;;;10.02;9.02;;;;;;;27.82;48.24;101141.09;5073243;28;20048;-76
2022/07/21 06:11:14;;;;;;;10.70;9.55;;;;;;;27.81;48.47;101147.56;5074464;28;20500;-76
2022/07/21 06:13:42;;;;;;;11.20;10.07;;;;;;;27.82;48.20;101151.13;5072996;28;20409;-76
2022/07/21 06:16:10;;;;;;;10.77;9.68;;;;;;;27.81;48.25;101147.56;5074034;28;20051;-76
2022/07/21 06:18:37;;;;;;;12.52;9.52;;;;;;;27.83;48.44;101145.53;5074184;28;20056;-76
2022/07/21 06:21:05;;;;;;;11.35;10.25;;;;;;;27.84;48.23;101155.38;5074147;28;20041;-76
2022/07/21 06:23:33;;;;;;;11.40;10.07;;;;;;;27.83;48.51;101155.53;5073100;28;20059;-76
2022/07/21 06:26:00;;;;;;;11.90;10.68;;;;;;;27.80;48.40;101158.63;5074988;28;20049;-76
2022/07/21 06:28:28;;;;;;;12.68;9.98;;;;;;;27.78;48.08;101160.66;5092221;28;20056;-77
2022/07/21 06:30:55;;;;;;;14.15;10.90;;;;;;;27.75;48.20;101155.59;5095220;28;20051;-75
2022/07/21 06:33:22;;;;;;;11.63;10.50;;;;;;;27.73;47.99;101171.22;5094747;28;20048;-78
2022/07/21 06:35:50;;;;;;;11.90;10.75;;;;;;;27.71;48.39;101160.53;5094891;28;20059;-75
2022/07/21 06:38:17;;;;;;;11.70;10.60;;;;;;;27.73;48.45;101158.50;5094994;28;20052;-74
2022/07/21 06:40:44;;;;;;;10.30;9.40;;;;;;;27.74;48.63;101164.78;5095010;28;20056;-74
2022/07/21 06:43:12;;;;;;;12.18;10.63;;;;;;;27.76;48.31;101165.47;5093660;28;20047;-74
2022/07/21 06:45:57;;;;;;;13.85;10.90;;;;;;;27.77;48.47;101159.81;5094840;28;20383;-75
2022/07/21 06:48:25;;;;;;;11.38;10.20;;;;;;;27.79;48.37;101157.78;5093920;28;20052;-75
2022/07/21 06:50:53;;;;;;;11.82;10.57;;;;;;;27.81;48.72;101154.88;5094864;28;20044;-74
2022/07/21 06:53:22;;;;;;;11.93;10.57;;;;;;;27.83;48.35;101160.97;5094075;28;20055;-74
2022/07/21 06:55:53;;;;;;;11.00;9.93;;;;;;;27.84;48.55;101165.41;5094029;28;20503;-75
2022/07/21 06:58:30;;;;;;;11.35;10.35;;;;;;;27.84;48.54;101163.53;5094873;28;20399;-75
2022/07/21 07:01:02;;;;;;;10.95;9.85;;;;;;;27.85;48.38;101164.38;5094246;28;20051;-78
2022/07/21 07:03:33;;;;;;;11.95;10.75;;;;;;;27.85;48.78;101167.09;5094131;28;20044;-75
2022/07/21 07:06:03;;;;;;;14.65;10.25;;;;;;;27.86;48.61;101163.34;5094385;28;20054;-75
2022/07/21 07:08:31;;;;;;;12.93;10.38;;;;;;;27.85;48.83;101167.09;5094440;28;20048;-75
2022/07/21 07:10:59;;;;;;;12.35;11.13;;;;;;;27.86;48.60;101166.06;5093718;28;20044;-75
2022/07/21 07:13:26;;;;;;;12.13;10.93;;;;;;;27.87;48.58;101167.75;5103067;28;20540;-73
2022/07/21 07:16:14;;;;;;;12.80;11.70;;;;;;;27.87;48.55;101167.75;5073462;28;20055;-75
2022/07/21 07:18:41;;;;;;;14.52;11.77;;;;;;;27.87;48.91;101166.91;5072471;28;20051;-74
2022/07/21 07:21:09;;;;;;;13.68;11.43;;;;;;;27.87;48.45;101169.63;5072167;28;20044;-75
2022/07/21 07:23:39;;;;;;;14.23;12.60;;;;;;;27.85;48.68;101167.09;5075340;28;20048;-74
2022/07/21 07:26:07;;;;;;;13.43;12.00;;;;;;;27.84;48.22;101165.41;5071560;28;20052;-74
2022/07/21 07:28:35;;;;;;;13.48;12.15;;;;;;;27.83;48.17;101164.56;5080070;28;20480;-75
2022/07/21 07:31:02;;;;;;;14.30;11.52;;;;;;;27.82;47.99;101164.72;5093743;28;20051;-75
2022/07/21 07:33:30;;;;;;;12.90;11.10;;;;;;;27.83;48.05;101174.56;5093391;28;20410;-75
2022/07/21 07:35:57;;;;;;;13.07;11.80;;;;;;;27.83;47.94;101170.00;5092523;28;20044;-75
2022/07/21 07:38:24;;;;;;;11.32;10.13;;;;;;;27.82;48.06;101162.84;5091841;28;20056;-74
2022/07/21 07:40:52;;;;;;;11.80;10.80;;;;;;;27.84;48.16;101159.97;5093520;28;20468;-75
2022/07/21 07:43:20;;;;;;;12.55;11.32;;;;;;;27.86;47.89;101160.63;5091852;28;20491;-75
2022/07/21 07:45:47;;;;;;;12.63;10.20;;;;;;;27.88;48.04;101161.31;5093636;28;20349;-74
2022/07/21 07:48:15;;;;;;;11.88;10.38;;;;;;;27.89;47.57;101156.69;5093141;28;20071;-75
2022/07/21 07:50:42;;;;;;;12.23;9.32;;;;;;;27.89;46.34;101160.25;5093327;28;20051;-74
2022/07/21 07:53:09;;;;;;;10.68;9.68;;;;;;;27.89;46.30;101156.69;5093208;28;20582;-75
2022/07/21 07:55:37;;;;;;;11.20;10.15;;;;;;;27.92;46.60;101162.63;5093187;28;20044;-75
2022/07/21 07:58:04;;;;;;;9.82;8.88;;;;;;;27.95;46.62;101161.41;5091387;28;20052;-75
2022/07/21 08:00:31;;;;;;;10.23;9.05;;;;;;;27.98;46.24;101161.88;5093316;28;20114;-75
2022/07/21 08:03:19;;;;;;;12.40;9.98;;;;;;;27.99;46.44;101166.28;5092907;28;20063;-75
2022/07/21 08:05:47;;;;;;;9.65;8.75;;;;;;;28.02;46.72;101162.38;5092853;28;20051;-76
2022/07/21 08:08:15;;;;;;;9.27;8.38;;;;;;;28.03;46.64;101169.50;5093292;28;20377;-76
2022/07/21 08:10:45;;;;;;;11.30;8.52;;;;;;;28.02;45.70;101159.66;5093097;28;20036;-76
2022/07/21 08:13:16;;;;;;;12.18;9.52;;;;;;;28.02;46.31;101156.94;5093074;28;20487;-76
2022/07/21 08:15:45;;;;;;;10.23;9.07;;;;;;;28.02;46.55;101157.78;5093385;28;20048;-75
2022/07/21 08:18:13;;;;;;;11.00;9.20;;;;;;;28.04;46.39;101152.16;5092989;28;20036;-76
2022/07/21 08:20:40;;;;;;;9.70;8.80;;;;;;;28.05;46.63;101151.13;5092423;28;20491;-76
2022/07/21 08:23:08;;;;;;;9.05;8.15;;;;;;;28.04;46.78;101150.28;5091537;28;20048;-75
2022/07/21 08:25:39;;;;;;;10.43;9.32;;;;;;;28.06;46.55;101150.09;5093125;28;20040;-76
2022/07/21 08:28:07;;;;;;;9.50;8.57;;;;;;;28.06;46.33;101147.38;5092720;28;20411;-76
2022/07/21 08:30:35;;;;;;;9.63;8.32;;;;;;;28.07;46.66;101149.91;5092795;28;20051;-75
2022/07/21 08:33:04;;;;;;;9.93;8.80;;;;;;;28.07;46.57;101147.19;5093406;28;20040;-75
2022/07/21 08:35:33;;;;;;;8.98;8.18;;;;;;;28.07;46.77;101144.47;5093400;28;20399;-76
2022/07/21 08:38:04;;;;;;;9.50;8.55;;;;;;;28.09;47.00;101142.41;5093213;28;20039;-76
2022/07/21 08:40:35;;;;;;;10.23;8.68;;;;;;;28.10;47.14;101146.81;5096643;28;20483;-76
2022/07/21 08:43:03;;;;;;;9.13;8.32;;;;;;;28.12;47.11;101148.53;5096755;28;20044;-76
2022/07/21 08:45:31;;;;;;;11.40;8.00;;;;;;;28.12;47.24;101143.09;5095324;28;20047;-76
2022/07/21 08:47:59;;;;;;;10.13;9.20;;;;;;;28.12;47.25;101143.94;5094504;28;20063;-76
2022/07/21 08:50:33;;;;;;;9.15;8.20;;;;;;;28.13;47.04;101152.94;5096249;28;20395;-77
2022/07/21 08:53:06;;;;;;;10.85;9.00;;;;;;;28.14;47.32;101151.91;5095076;28;20048;-76
2022/07/21 08:55:39;;;;;;;10.75;9.13;;;;;;;28.15;47.33;101149.00;5096268;28;20392;-77
2022/07/21 08:58:09;;;;;;;10.98;8.52;;;;;;;28.16;47.36;101152.59;5096261;28;20048;-77
2022/07/21 09:00:39;;;;;;;11.48;8.82;;;;;;;28.17;47.44;101148.84;5096124;28;20051;-77
2022/07/21 09:03:27;;;;;;;10.43;9.43;;;;;;;28.17;47.12;101155.13;5095921;28;20059;-76
2022/07/21 09:05:59;;;;;;;9.40;8.50;;;;;;;28.18;47.45;101150.53;5094740;28;20059;-77
2022/07/21 09:08:36;;;;;;;10.43;8.93;;;;;;;28.19;47.51;101157.66;5096920;28;20048;-77
2022/07/21 09:11:17;;;;;;;11.07;8.60;;;;;;;28.19;47.31;101146.75;5094811;28;20044;-77
2022/07/21 09:13:51;;;;;;;9.13;8.25;;;;;;;28.18;47.52;101147.78;5095856;28;20044;-77
2022/07/21 09:16:44;;;;;;;12.32;8.23;;;;;;;28.20;46.41;101143.88;5095992;28;20044;-77
2022/07/21 09:19:35;;;;;;;8.32;7.53;;;;;;;28.21;46.22;101142.00;5095829;28;20063;-77
2022/07/21 09:22:06;;;;;;;8.02;6.85;;;;;;;28.24;45.79;101141.63;5095691;28;20055;-76
2022/07/21 09:24:39;;;;;;;8.27;6.43;;;;;;;28.25;45.58;101146.03;5095938;28;20043;-76
2022/07/21 09:27:15;;;;;;;9.27;7.00;;;;;;;28.25;45.75;101146.88;5094655;28;20064;-77
2022/07/21 09:29:56;;;;;;;8.02;7.00;;;;;;;28.25;45.90;101149.59;5096031;28;20084;-76
2022/07/21 09:32:30;;;;;;;8.02;6.18;;;;;;;28.25;46.00;101140.59;5095648;28;20129;-76
2022/07/21 09:35:02;;;;;;;7.05;6.35;;;;;;;28.24;45.68;101137.03;5095770;28;20376;-76
2022/07/21 09:37:35;;;;;;;7.78;6.15;;;;;;;28.25;45.64;101143.31;5095894;28;20044;-76
2022/07/21 09:40:09;;;;;;;7.25;5.80;;;;;;;28.25;46.17;101136.00;5094406;28;20048;-75
2022/07/21 09:42:40;;;;;;;7.90;5.72;;;;;;;28.25;45.98;101133.28;5095302;28;20048;-76
2022/07/21 09:45:11;;;;;;;7.43;6.30;;;;;;;28.25;45.68;101136.00;5094145;28;20044;-75
2022/07/21 09:47:40;;;;;;;6.97;6.10;;;;;;;28.25;46.04;101129.72;5096289;28;20039;-76
2022/07/21 09:50:09;;;;;;;8.13;6.43;;;;;;;28.26;46.21;101131.41;5094768;28;20476;-76
2022/07/21 09:52:57;;;;;;;6.75;6.03;;;;;;;28.26;46.09;101126.78;5095951;28;20051;-76
2022/07/21 09:55:25;;;;;;;6.60;6.00;;;;;;;28.25;46.25;101125.09;5076760;28;20051;-76
2022/07/21 09:57:55;;;;;;;8.65;6.32;;;;;;;28.26;46.16;101124.06;5095337;28;20096;-76
2022/07/21 10:00:22;;;;;;;8.85;5.70;;;;;;;28.25;45.83;101127.81;5093542;28;20130;-76
2022/07/21 10:02:50;;;;;;;6.60;6.00;;;;;;;28.25;46.00;101118.81;5093990;28;20051;-76
2022/07/21 10:05:21;;;;;;;6.57;5.47;;;;;;;28.26;46.10;101120.50;5094547;28;20373;-76
2022/07/21 10:07:56;;;;;;;6.97;6.25;;;;;;;28.26;46.00;101117.78;5095635;28;20472;-76
2022/07/21 10:10:23;;;;;;;9.05;5.75;;;;;;;28.26;46.15;101117.78;5095092;28;20044;-76
2022/07/21 10:13:11;;;;;;;6.53;5.93;;;;;;;28.26;46.37;101115.06;5095402;28;20055;-76
2022/07/21 10:15:39;;;;;;;6.50;5.72;;;;;;;28.26;46.42;101113.19;5096075;28;20051;-76
2022/07/21 10:18:10;;;;;;;8.05;6.05;;;;;;;28.27;46.27;101114.00;5094879;28;20071;-76
2022/07/21 10:20:44;;;;;;;6.10;5.32;;;;;;;28.27;46.20;101111.28;5095915;28;20075;-76
2022/07/21 10:23:39;;;;;;;6.00;5.40;;;;;;;28.27;46.23;101108.56;5094077;28;20491;-76
2022/07/21 10:26:07;;;;;;;6.13;5.38;;;;;;;28.27;46.20;101108.56;5095993;28;20040;-76
2022/07/21 10:28:34;;;;;;;6.70;5.45;;;;;;;28.26;46.25;101104.16;5094883;28;20505;-76
2022/07/21 10:31:20;;;;;;;7.63;5.68;;;;;;;28.27;45.84;101103.97;5095152;28;20051;-76
2022/07/21 10:33:50;;;;;;;6.78;6.05;;;;;;;28.28;46.20;101107.56;5093962;28;20048;-76
2022/07/21 10:36:27;;;;;;;6.20;4.90;;;;;;;28.27;45.82;101106.69;5095539;28;20048;-76
2022/07/21 10:39:08;;;;;;;6.32;5.53;;;;;;;28.28;45.93;101115.72;5078578;28;20040;-76
2022/07/21 10:41:37;;;;;;;5.78;5.22;;;;;;;28.28;45.99;101104.84;5096593;28;20055;-76
2022/07/21 10:44:27;;;;;;;7.88;6.40;;;;;;;28.29;45.75;101117.41;5095566;28;20380;-76
2022/07/21 10:47:04;;;;;;;6.18;5.20;;;;;;;28.29;46.12;101111.97;5095217;28;20044;-76
2022/07/21 10:49:43;;;;;;;5.68;5.07;;;;;;;28.28;45.86;101102.13;5094396;28;20052;-76
2022/07/21 10:52:35;;;;;;;6.25;5.60;;;;;;;28.29;46.07;101106.53;5093376;28;20460;-76
2022/07/21 10:55:17;;;;;;;5.95;4.93;;;;;;;28.29;45.90;101103.81;5093969;28;20048;-76
2022/07/21 10:57:46;;;;;;;8.20;6.07;;;;;;;28.28;45.74;101100.25;5094198;28;20048;-76
2022/07/21 11:00:28;;;;;;;5.82;5.22;;;;;;;28.29;45.86;101096.47;5095157;28;20071;-76
2022/07/21 11:03:02;;;;;;;6.80;6.10;;;;;;;28.29;45.79;101096.47;5095349;28;20040;-76
2022/07/21 11:05:33;;;;;;;6.28;5.68;;;;;;;28.30;46.13;101098.16;5094339;28;20056;-76
2022/07/21 11:08:11;;;;;;;6.37;5.40;;;;;;;28.30;46.17;101100.03;5094191;28;20052;-76
2022/07/21 11:10:42;;;;;;;6.63;5.20;;;;;;;28.31;46.06;101093.56;5094554;28;20059;-76
2022/07/21 11:13:09;;;;;;;8.15;5.32;;;;;;;28.31;46.04;101097.13;5094802;28;20036;-76
2022/07/21 11:15:56;;;;;;;5.72;5.20;;;;;;;28.31;46.03;101093.56;5094267;28;20044;-76
2022/07/21 11:18:27;;;;;;;6.22;5.18;;;;;;;28.32;45.92;101092.56;5094746;28;20044;-76
2022/07/21 11:21:15;;;;;;;5.75;5.25;;;;;;;28.31;46.07;101086.22;5094976;28;20044;-76
2022/07/21 11:23:49;;;;;;;5.40;4.88;;;;;;;28.31;46.00;101080.78;5094460;28;20051;-76
2022/07/21 11:26:23;;;;;;;5.55;4.97;;;;;;;28.32;45.99;101087.09;5094014;28;20047;-76
2022/07/21 11:29:06;;;;;;;5.68;5.13;;;;;;;28.31;46.03;101078.06;5094247;28;20055;-75
2022/07/21 11:31:46;;;;;;;5.35;4.85;;;;;;;28.31;45.67;101069.91;5093807;28;20048;-76